Time;durP1;ratioP1;P1;durP2;ratioP2;P2;SDS_P1;SDS_P2;PMS_P1;PMS_P2;Temp;Humidity;BMP_temperature;BMP_pressure;BME280_temperature;BME280_humidity;BME280_pressure;Samples;Min_cycle;Max_cycle;Signal;HPM_P1;HPM_P2
2021/07/17 00:00:21;;;;;;;24.93;21.07;;;;;;;22.12;88.01;98747.16;125014;1093;64216;-78
2021/07/17 00:03:08;;;;;;;;;;;;;;;22.09;88.13;98747.53;124986;1093;64293;-78
2021/07/17 00:05:35;;;;;;;21.77;18.33;;;;;;;22.09;88.10;98727.67;124984;1093;64774;-78
2021/07/17 00:08:04;;;;;;;16.95;15.25;;;;;;;22.06;87.51;98722.61;125002;1093;64188;-78
2021/07/17 00:10:38;;;;;;;19.55;16.10;;;;;;;22.03;87.54;98726.53;125014;1093;64290;-78
2021/07/17 00:13:06;;;;;;;16.87;14.73;;;;;;;21.99;87.52;98735.24;125018;1093;64257;-77
2021/07/17 00:15:35;;;;;;;15.43;13.87;;;;;;;21.97;87.43;98734.58;125028;1093;64278;-77
2021/07/17 00:18:03;;;;;;;15.83;14.13;;;;;;;21.90;87.73;98729.86;125003;1093;64360;-77
2021/07/17 00:20:31;;;;;;;16.90;15.20;;;;;;;21.80;87.53;98741.98;124898;1093;64227;-77
2021/07/17 00:22:58;;;;;;;16.43;14.77;;;;;;;21.75;88.37;98755.23;125009;1093;64270;-77
2021/07/17 00:25:26;;;;;;;20.55;17.60;;;;;;;21.77;88.40;98756.75;125024;1092;64431;-77
2021/07/17 00:27:54;;;;;;;19.40;16.90;;;;;;;21.73;88.39;98757.31;125024;1093;64281;-77
2021/07/17 00:30:21;;;;;;;17.60;15.70;;;;;;;21.68;88.69;98766.81;125028;1093;64251;-77
2021/07/17 00:32:49;;;;;;;17.73;15.13;;;;;;;21.68;88.80;98761.39;125056;1093;64268;-77
2021/07/17 00:35:17;;;;;;;19.57;17.47;;;;;;;21.65;88.64;98763.63;125046;1093;64310;-77
2021/07/17 00:37:45;;;;;;;17.13;15.53;;;;;;;21.62;89.10;98774.84;125041;1092;64293;-77
2021/07/17 00:40:14;;;;;;;20.27;18.10;;;;;;;21.58;89.10;98770.78;125013;1093;64300;-77
2021/07/17 00:42:42;;;;;;;;;;;;;;;21.54;89.46;98770.30;125129;1092;64340;-77
2021/07/17 00:45:11;;;;;;;20.73;18.63;;;;;;;21.43;90.06;98768.84;125067;1093;64293;-77
2021/07/17 00:47:39;;;;;;;22.13;19.87;;;;;;;21.41;90.20;98767.33;125099;1093;64282;-77
2021/07/17 00:50:09;;;;;;;22.27;20.13;;;;;;;21.42;90.38;98764.42;125068;1092;64396;-77
2021/07/17 00:52:36;;;;;;;;;;;;;;;21.46;90.61;98771.20;125087;1093;64227;-77
2021/07/17 00:55:05;;;;;;;21.83;19.73;;;;;;;21.46;90.67;98771.20;125043;1093;64265;-77
2021/07/17 00:57:33;;;;;;;21.50;19.40;;;;;;;21.43;90.39;98776.11;125091;1093;64274;-77
2021/07/17 01:00:03;;;;;;;19.40;17.53;;;;;;;21.42;90.60;98777.98;125012;1093;64789;-77
2021/07/17 01:02:35;;;;;;;20.13;18.13;;;;;;;21.43;90.66;98767.98;125014;1093;64284;-77
2021/07/17 01:05:04;;;;;;;20.07;18.10;;;;;;;21.46;90.95;98771.20;125021;1093;64319;-77
2021/07/17 01:07:31;;;;;;;21.00;17.30;;;;;;;21.48;90.45;98766.45;125097;1093;64244;-77
2021/07/17 01:09:58;;;;;;;18.95;17.05;;;;;;;21.51;90.54;98767.92;125000;1093;64290;-77
2021/07/17 01:12:25;;;;;;;16.80;15.10;;;;;;;21.47;90.25;98770.16;125023;1092;64284;-77
2021/07/17 01:14:52;;;;;;;17.17;15.47;;;;;;;21.42;90.29;98777.98;124976;1093;64315;-77
2021/07/17 01:17:19;;;;;;;19.00;17.00;;;;;;;21.34;90.58;98774.45;125052;1092;64309;-76
2021/07/17 01:19:47;;;;;;;21.53;19.33;;;;;;;21.31;90.60;98782.94;124907;1093;64324;-76
2021/07/17 01:22:14;;;;;;;20.20;17.97;;;;;;;21.28;90.21;98788.72;125007;1093;64268;-77
2021/07/17 01:24:43;;;;;;;19.43;17.63;;;;;;;21.28;90.58;98794.14;124969;1093;64188;-76
2021/07/17 01:27:17;;;;;;;19.93;17.80;;;;;;;21.30;90.58;98794.78;125021;1093;64242;-77
2021/07/17 01:29:47;;;;;;;19.77;17.87;;;;;;;21.28;90.88;98778.71;125024;1093;64404;-77
2021/07/17 01:32:19;;;;;;;18.70;16.70;;;;;;;21.29;90.42;98774.97;124996;1093;64185;-77
2021/07/17 01:34:47;;;;;;;20.23;18.10;;;;;;;21.23;90.86;98765.68;124981;1093;64281;-77
2021/07/17 01:37:14;;;;;;;20.10;18.00;;;;;;;21.22;90.92;98773.97;125025;1093;64309;-77
2021/07/17 01:39:41;;;;;;;19.73;17.53;;;;;;;21.20;90.86;98779.59;125005;1093;64265;-77
2021/07/17 01:42:09;;;;;;;18.40;16.50;;;;;;;21.21;91.05;98786.69;125020;1093;64426;-77
2021/07/17 01:44:45;;;;;;;17.57;15.97;;;;;;;21.20;90.48;98795.02;125015;1093;64281;-77
2021/07/17 01:47:13;;;;;;;16.30;14.60;;;;;;;21.16;90.65;98790.95;124989;1094;64273;-78
2021/07/17 01:49:42;;;;;;;17.43;15.73;;;;;;;21.12;90.49;98795.89;125018;1093;64228;-78
2021/07/17 01:52:09;;;;;;;21.37;19.27;;;;;;;21.09;90.80;98793.53;125027;1093;64382;-78
2021/07/17 01:54:38;;;;;;;22.70;18.67;;;;;;;21.11;90.83;98790.63;125032;1093;64659;-78
2021/07/17 01:57:07;;;;;;;22.10;19.67;;;;;;;21.16;91.24;98793.66;125031;1093;64268;-78
2021/07/17 01:59:45;;;;;;;19.90;17.97;;;;;;;21.21;91.35;98793.98;125115;1093;64265;-78
2021/07/17 02:02:13;;;;;;;21.65;19.50;;;;;;;21.22;91.31;98791.11;125062;1091;64158;-78
2021/07/17 02:04:40;;;;;;;22.33;20.30;;;;;;;21.25;91.75;98788.04;125055;1093;64280;-78
2021/07/17 02:07:07;;;;;;;22.63;20.27;;;;;;;21.35;91.69;98795.09;125045;1093;64319;-78
2021/07/17 02:09:35;;;;;;;21.90;19.60;;;;;;;21.43;91.96;98789.66;125012;1093;64220;-78
2021/07/17 02:12:03;;;;;;;19.20;17.40;;;;;;;21.44;91.69;98788.66;125065;1093;64306;-78
2021/07/17 02:14:39;;;;;;;17.87;16.17;;;;;;;21.44;91.38;98780.53;125055;1093;64281;-77
2021/07/17 02:17:08;;;;;;;20.27;17.27;;;;;;;21.40;91.53;98790.86;125090;1093;64287;-76
2021/07/17 02:19:35;;;;;;;20.23;16.95;;;;;;;21.39;91.20;98794.61;125043;1093;64369;-76
2021/07/17 02:22:03;;;;;;;20.60;18.70;;;;;;;21.34;91.24;98794.26;124953;1093;64252;-77
2021/07/17 02:24:31;;;;;;;20.07;18.13;;;;;;;21.28;91.29;98794.14;125005;1093;64268;-77
2021/07/17 02:26:58;;;;;;;19.50;17.63;;;;;;;21.23;91.56;98790.07;125013;1093;64284;-77
2021/07/17 02:29:25;;;;;;;18.90;17.15;;;;;;;21.15;91.44;98787.40;125006;1093;64265;-77
2021/07/17 02:31:53;;;;;;;20.87;18.77;;;;;;;21.10;91.43;98784.37;124891;1093;64407;-77
2021/07/17 02:34:20;;;;;;;20.90;18.70;;;;;;;21.05;91.79;98786.76;124970;1093;64210;-77
2021/07/17 02:36:47;;;;;;;21.63;19.60;;;;;;;20.99;91.79;98780.17;124974;1092;64268;-75
2021/07/17 02:39:14;;;;;;;20.93;18.83;;;;;;;20.93;92.13;98775.47;125004;1093;64218;-75
2021/07/17 02:41:41;;;;;;;23.33;20.83;;;;;;;20.90;92.21;98777.66;124949;1093;64313;-75
2021/07/17 02:44:08;;;;;;;22.00;19.90;;;;;;;20.93;92.22;98771.89;124985;1093;64362;-75
2021/07/17 02:46:36;;;;;;;22.73;20.33;;;;;;;20.91;92.15;98774.79;124982;1092;64284;-75
2021/07/17 02:49:05;;;;;;;22.83;20.43;;;;;;;20.89;92.12;98776.82;124983;1093;64284;-75
2021/07/17 02:51:32;;;;;;;20.97;18.83;;;;;;;20.86;92.32;98781.75;125000;1093;64191;-75
2021/07/17 02:53:59;;;;;;;21.13;18.93;;;;;;;20.81;92.25;98779.55;125010;1093;64358;-75
2021/07/17 02:56:26;;;;;;;22.53;20.37;;;;;;;20.77;92.30;98779.06;125036;1093;64281;-75
2021/07/17 02:58:53;;;;;;;22.73;20.33;;;;;;;20.76;92.71;98788.19;125056;1093;64386;-75
2021/07/17 03:01:20;;;;;;;21.13;19.20;;;;;;;20.77;92.37;98787.19;125041;1093;64294;-75
2021/07/17 03:03:48;;;;;;;21.27;19.17;;;;;;;20.81;92.44;98796.64;125013;1092;64281;-75
2021/07/17 03:06:15;;;;;;;21.50;19.33;;;;;;;20.86;92.41;98796.14;124991;1093;64367;-75
2021/07/17 03:08:42;;;;;;;24.40;21.90;;;;;;;20.88;92.60;98785.98;125006;1093;64264;-75
2021/07/17 03:11:09;;;;;;;25.10;22.50;;;;;;;20.83;92.45;98780.23;125042;1093;64242;-75
2021/07/17 03:13:36;;;;;;;26.77;23.73;;;;;;;20.82;92.53;98781.23;124989;1093;64274;-75
2021/07/17 03:16:04;;;;;;;23.70;21.40;;;;;;;20.86;92.55;98787.17;125015;1093;64291;-75
2021/07/17 03:18:31;;;;;;;24.60;22.10;;;;;;;20.92;92.98;98795.43;125031;1093;64283;-75
2021/07/17 03:20:58;;;;;;;24.73;21.93;;;;;;;20.97;92.55;98795.75;125008;1093;64747;-75
2021/07/17 03:23:25;;;;;;;25.60;22.90;;;;;;;21.01;92.96;98788.11;124979;1093;64293;-75
2021/07/17 03:25:52;;;;;;;26.97;23.57;;;;;;;21.00;92.79;98795.41;125016;1093;64268;-77
2021/07/17 03:28:19;;;;;;;27.17;24.67;;;;;;;21.00;92.82;98789.14;125002;1093;64210;-77
2021/07/17 03:30:46;;;;;;;27.97;25.03;;;;;;;21.04;92.94;98796.76;125003;1093;64276;-77
2021/07/17 03:33:13;;;;;;;25.80;23.10;;;;;;;21.08;92.91;98782.85;125040;1092;64772;-77
2021/07/17 03:35:41;;;;;;;24.27;21.87;;;;;;;21.11;92.52;98782.50;125035;1093;64281;-76
2021/07/17 03:38:08;;;;;;;24.80;22.33;;;;;;;21.14;92.33;98785.69;125021;1093;64320;-78
2021/07/17 03:40:35;;;;;;;25.47;22.77;;;;;;;21.30;92.10;98786.64;125015;1093;64271;-77
2021/07/17 03:43:02;;;;;;;22.57;20.43;;;;;;;21.50;91.99;98796.08;125032;1093;64395;-77
2021/07/17 03:45:30;;;;;;;22.23;20.23;;;;;;;21.75;91.35;98794.08;125025;1093;64312;-77
2021/07/17 03:47:57;;;;;;;26.07;23.00;;;;;;;22.01;90.73;98788.31;125020;1093;64273;-77
2021/07/17 03:50:24;;;;;;;24.00;21.73;;;;;;;22.29;89.90;98795.91;124993;1093;64265;-77
2021/07/17 03:52:51;;;;;;;23.10;20.80;;;;;;;22.43;89.26;98794.26;125009;1092;64306;-77
2021/07/17 03:55:19;;;;;;;24.67;22.20;;;;;;;22.56;89.28;98802.62;124982;1093;64351;-77
2021/07/17 03:57:46;;;;;;;24.10;21.55;;;;;;;22.51;89.07;98802.33;124910;1093;64287;-78
2021/07/17 04:00:14;;;;;;;24.27;21.80;;;;;;;22.52;89.62;98804.88;125010;1093;64325;-78
2021/07/17 04:02:42;;;;;;;27.27;24.30;;;;;;;22.49;88.66;98801.69;124909;1093;64340;-78
2021/07/17 04:05:11;;;;;;;27.27;24.60;;;;;;;22.48;88.89;98800.82;125087;1093;64271;-78
2021/07/17 04:07:39;;;;;;;27.43;24.77;;;;;;;22.63;88.88;98809.01;124985;1093;64188;-78
2021/07/17 04:10:08;;;;;;;27.07;24.30;;;;;;;22.72;88.37;98801.61;125033;1093;64383;-78
2021/07/17 04:12:35;;;;;;;26.03;23.33;;;;;;;22.81;88.43;98792.37;124921;1093;64293;-78
2021/07/17 04:15:05;;;;;;;24.80;22.50;;;;;;;22.96;88.52;98797.79;125066;1093;64257;-78
2021/07/17 04:17:32;;;;;;;24.13;21.85;;;;;;;23.26;87.58;98803.27;124961;1093;64410;-78
2021/07/17 04:20:00;;;;;;;24.53;22.00;;;;;;;23.57;87.34;98800.33;124960;1093;64406;-78
2021/07/17 04:22:27;;;;;;;22.67;20.43;;;;;;;24.17;85.79;98801.84;125030;1093;64421;-78
2021/07/17 04:24:54;;;;;;;22.10;19.93;;;;;;;24.48;84.17;98806.95;125084;1093;64284;-77
2021/07/17 04:27:21;;;;;;;23.60;21.20;;;;;;;24.66;83.74;98800.19;124881;1093;64740;-78
2021/07/17 04:29:48;;;;;;;23.83;21.50;;;;;;;24.96;82.94;98801.66;124986;1093;64283;-78
2021/07/17 04:32:16;;;;;;;24.13;21.70;;;;;;;25.17;81.96;98803.50;124977;1093;64458;-77
2021/07/17 04:34:43;;;;;;;22.93;20.33;;;;;;;25.25;81.21;98807.95;125001;1093;64360;-78
2021/07/17 04:37:17;;;;;;;24.07;21.77;;;;;;;24.79;81.66;98803.00;125017;1093;64268;-77
2021/07/17 04:39:49;;;;;;;24.00;21.63;;;;;;;24.43;82.44;98800.38;125067;1093;64265;-78
2021/07/17 04:42:16;;;;;;;24.07;21.77;;;;;;;24.12;83.10;98798.86;125013;1093;64284;-78
2021/07/17 04:44:43;;;;;;;24.83;22.53;;;;;;;23.97;83.68;98804.36;124986;1093;64348;-78
2021/07/17 04:47:11;;;;;;;23.10;20.80;;;;;;;23.96;83.17;98801.81;124996;1093;64356;-78
2021/07/17 04:49:38;;;;;;;23.33;21.03;;;;;;;23.93;83.18;98789.43;125045;1093;64185;-78
2021/07/17 04:52:05;;;;;;;23.30;21.10;;;;;;;24.34;82.09;98791.52;125034;1092;64287;-78
2021/07/17 04:54:33;;;;;;;21.25;19.15;;;;;;;24.94;80.46;98783.83;125031;1093;64188;-78
2021/07/17 04:57:00;;;;;;;21.53;19.53;;;;;;;25.51;79.59;98776.35;125026;1093;64268;-76
2021/07/17 04:59:27;;;;;;;21.50;19.40;;;;;;;26.02;78.23;98775.91;125033;1093;64374;-76
2021/07/17 05:01:54;;;;;;;21.20;19.25;;;;;;;26.47;76.71;98771.52;124979;1093;64273;-77
2021/07/17 05:04:22;;;;;;;20.50;18.80;;;;;;;26.53;76.37;98775.33;125054;1093;64376;-78
2021/07/17 05:06:49;;;;;;;20.07;18.37;;;;;;;26.73;76.21;98777.22;125012;1093;64287;-78
2021/07/17 05:09:16;;;;;;;21.10;19.13;;;;;;;26.77;74.63;98775.72;124979;1093;64274;-78
2021/07/17 05:11:43;;;;;;;21.77;19.80;;;;;;;26.89;74.64;98765.83;125004;1093;64338;-78
2021/07/17 05:14:11;;;;;;;21.17;18.97;;;;;;;26.90;75.18;98767.50;125046;1093;64232;-78
2021/07/17 05:16:38;;;;;;;20.57;18.57;;;;;;;27.30;74.16;98767.41;125043;1093;64283;-78
2021/07/17 05:19:05;;;;;;;20.77;18.30;;;;;;;27.06;73.82;98772.50;125040;1093;64306;-78
2021/07/17 05:21:32;;;;;;;21.03;18.60;;;;;;;27.13;73.45;98776.06;124997;1092;64291;-78
2021/07/17 05:23:59;;;;;;;21.37;19.13;;;;;;;27.51;72.18;98782.69;124989;1093;64412;-78
2021/07/17 05:26:26;;;;;;;21.07;19.17;;;;;;;27.77;71.68;98777.08;124990;1093;64316;-78
2021/07/17 05:28:54;;;;;;;20.67;18.90;;;;;;;27.91;71.70;98780.64;125020;1093;64290;-78
2021/07/17 05:31:22;;;;;;;21.17;19.17;;;;;;;27.84;71.02;98781.73;125026;1093;64211;-78
2021/07/17 05:33:49;;;;;;;19.07;17.47;;;;;;;27.88;69.95;98783.78;124965;1093;64648;-76
2021/07/17 05:36:16;;;;;;;18.47;16.60;;;;;;;27.59;70.39;98790.66;125020;1093;64335;-75
2021/07/17 05:38:43;;;;;;;19.40;17.70;;;;;;;27.02;70.43;98792.31;124987;1092;64270;-75
2021/07/17 05:41:10;;;;;;;19.70;17.80;;;;;;;26.51;72.30;98801.98;125023;1094;64281;-76
2021/07/17 05:43:37;;;;;;;20.47;18.70;;;;;;;26.38;73.37;98796.52;124899;1093;64251;-76
2021/07/17 05:46:04;;;;;;;19.30;17.60;;;;;;;26.32;73.20;98790.00;125035;1093;64268;-76
2021/07/17 05:48:32;;;;;;;18.80;17.10;;;;;;;26.12;73.27;98806.39;125060;1093;64290;-76
2021/07/17 05:50:59;;;;;;;20.40;18.30;;;;;;;25.91;73.05;98803.80;125025;1092;64274;-75
2021/07/17 05:53:26;;;;;;;18.07;16.40;;;;;;;25.69;73.31;98811.27;125044;1093;64287;-75
2021/07/17 05:55:53;;;;;;;19.03;17.17;;;;;;;26.03;73.26;98807.63;124897;1092;64377;-75
2021/07/17 05:58:21;;;;;;;18.87;17.03;;;;;;;26.31;72.54;98793.80;125005;1093;64374;-75
2021/07/17 06:00:48;;;;;;;19.37;17.30;;;;;;;26.69;72.13;98796.76;124991;1093;64309;-75
2021/07/17 06:03:15;;;;;;;17.93;16.17;;;;;;;27.12;71.33;98798.16;125026;1092;64195;-76
2021/07/17 06:05:42;;;;;;;18.47;16.67;;;;;;;27.55;69.41;98793.00;125030;1092;64290;-76
2021/07/17 06:08:10;;;;;;;18.67;16.83;;;;;;;27.43;69.34;98799.36;125028;1092;64280;-75
2021/07/17 06:10:37;;;;;;;18.80;16.90;;;;;;;27.22;71.14;98806.79;125014;1093;64310;-75
2021/07/17 06:13:06;;;;;;;17.83;16.17;;;;;;;27.74;69.89;98804.08;125013;1093;64412;-79
2021/07/17 06:15:33;;;;;;;17.95;16.15;;;;;;;28.05;69.39;98805.20;124913;1093;64427;-74
2021/07/17 06:18:00;;;;;;;19.53;17.57;;;;;;;28.31;68.63;98799.55;124993;1093;64287;-75
2021/07/17 06:20:28;;;;;;;19.00;17.00;;;;;;;28.64;67.36;98798.45;125027;1092;64284;-75
2021/07/17 06:22:55;;;;;;;17.83;16.13;;;;;;;28.26;68.43;98806.75;124983;1093;64360;-75
2021/07/17 06:25:22;;;;;;;18.30;16.80;;;;;;;28.29;68.37;98809.05;124912;1093;64357;-75
2021/07/17 06:27:49;;;;;;;17.47;15.80;;;;;;;28.69;67.56;98806.84;125026;1092;64309;-75
2021/07/17 06:30:17;;;;;;;17.23;15.67;;;;;;;28.97;66.69;98800.89;125018;1093;64265;-75
2021/07/17 06:32:44;;;;;;;16.97;15.10;;;;;;;29.28;66.00;98804.59;125030;1093;64245;-76
2021/07/17 06:35:12;;;;;;;18.20;16.47;;;;;;;29.32;65.56;98801.16;124895;1093;64348;-77
2021/07/17 06:37:43;;;;;;;16.27;14.87;;;;;;;29.32;65.34;98808.56;125052;1093;64862;-75
2021/07/17 06:40:14;;;;;;;17.00;15.50;;;;;;;29.40;65.23;98811.00;125020;1093;64244;-75
2021/07/17 06:42:50;;;;;;;17.17;15.67;;;;;;;29.48;64.72;98804.36;125085;1093;64283;-75
2021/07/17 06:45:19;;;;;;;17.53;16.00;;;;;;;29.01;63.60;98804.84;125084;1093;64317;-75
2021/07/17 06:47:47;;;;;;;;;;;;;;;28.98;63.77;98818.19;125004;1093;64306;-75
2021/07/17 06:50:16;;;;;;;17.03;15.23;;;;;;;29.14;63.56;98811.30;125032;1093;64213;-76
2021/07/17 06:52:44;;;;;;;16.93;15.53;;;;;;;29.29;63.92;98804.37;125051;1093;64268;-75
2021/07/17 06:55:12;;;;;;;16.53;14.93;;;;;;;29.73;64.06;98807.05;125048;1093;64267;-75
2021/07/17 06:57:41;;;;;;;16.97;15.37;;;;;;;30.00;63.20;98802.02;125041;1092;64188;-75
2021/07/17 07:00:12;;;;;;;16.87;14.73;;;;;;;29.93;62.15;98798.52;124905;1093;64284;-75
2021/07/17 07:02:39;;;;;;;17.55;14.60;;;;;;;29.44;61.79;98797.67;125064;1092;64345;-75
2021/07/17 07:05:08;;;;;;;16.60;15.10;;;;;;;28.78;62.93;98791.80;125069;1092;64268;-75
2021/07/17 07:07:36;;;;;;;;;;;;;;;28.29;63.19;98789.86;125075;1093;64271;-75
2021/07/17 07:10:07;;;;;;;12.00;10.90;;;;;;;27.87;63.54;98789.50;125053;1093;64287;-75
2021/07/17 07:12:39;;;;;;;11.00;9.97;;;;;;;27.72;62.69;98798.80;125016;1093;64478;-76
2021/07/17 07:15:08;;;;;;;13.60;12.20;;;;;;;27.73;63.29;98789.55;125042;1093;64402;-76
2021/07/17 07:17:38;;;;;;;15.60;14.00;;;;;;;27.88;62.72;98794.75;125080;1093;64281;-76
2021/07/17 07:20:07;;;;;;;15.90;14.50;;;;;;;28.35;63.92;98798.02;125076;1092;64153;-75
2021/07/17 07:22:35;;;;;;;15.77;14.07;;;;;;;28.55;63.66;98792.42;125085;1093;64262;-75
2021/07/17 07:25:06;;;;;;;16.07;14.47;;;;;;;29.09;63.68;98796.34;124904;1093;64367;-77
2021/07/17 07:27:34;;;;;;;16.10;14.70;;;;;;;29.68;63.14;98793.17;125130;1092;64392;-77
2021/07/17 07:30:06;;;;;;;16.27;14.97;;;;;;;29.70;62.99;98802.86;124990;1093;64288;-77
2021/07/17 07:32:34;;;;;;;15.57;14.20;;;;;;;29.60;63.11;98799.78;125075;1093;64280;-77
2021/07/17 07:35:01;;;;;;;15.13;13.73;;;;;;;29.62;63.50;98794.05;124906;1093;64281;-77
2021/07/17 07:37:28;;;;;;;15.53;14.20;;;;;;;29.78;62.06;98789.85;125020;1093;64306;-76
2021/07/17 07:39:56;;;;;;;15.83;13.23;;;;;;;29.70;62.30;98772.64;124958;1094;64281;-77
2021/07/17 07:42:23;;;;;;;14.97;13.53;;;;;;;29.64;61.80;98781.78;125102;1093;64293;-77
2021/07/17 07:44:51;;;;;;;13.57;12.43;;;;;;;29.31;60.32;98788.52;124991;1093;64214;-78
2021/07/17 07:47:19;;;;;;;15.13;13.73;;;;;;;29.07;61.45;98792.17;125088;1093;64207;-78
2021/07/17 07:49:46;;;;;;;14.87;13.57;;;;;;;29.20;61.56;98794.78;124994;1092;64278;-77
2021/07/17 07:52:14;;;;;;;14.77;13.50;;;;;;;29.37;61.33;98794.16;125007;1093;64382;-77
2021/07/17 07:54:41;;;;;;;14.07;12.87;;;;;;;29.45;61.13;98789.19;125027;1093;64281;-77
2021/07/17 07:57:08;;;;;;;14.00;12.83;;;;;;;29.61;61.23;98787.72;125008;1093;64372;-78
2021/07/17 07:59:35;;;;;;;13.53;12.33;;;;;;;29.92;60.73;98788.61;125028;1093;64360;-76
2021/07/17 08:02:03;;;;;;;14.10;12.70;;;;;;;29.83;60.04;98801.81;125000;1093;64387;-77
2021/07/17 08:04:30;;;;;;;13.23;12.13;;;;;;;29.93;60.24;98791.11;125027;1093;64422;-78
2021/07/17 08:06:57;;;;;;;14.17;12.80;;;;;;;30.22;59.93;98793.23;125067;1093;64241;-77
2021/07/17 08:09:25;;;;;;;14.27;12.53;;;;;;;30.27;59.63;98802.48;125099;1093;64260;-77
2021/07/17 08:11:52;;;;;;;13.63;12.43;;;;;;;30.52;59.12;98796.81;124936;1093;64319;-77
2021/07/17 08:14:21;;;;;;;12.30;11.20;;;;;;;30.66;58.25;98802.08;125015;1093;64214;-77
2021/07/17 08:16:48;;;;;;;12.60;11.50;;;;;;;30.48;57.47;98811.27;125049;1092;64268;-77
2021/07/17 08:19:37;;;;;;;12.40;11.40;;;;;;;30.47;57.32;98810.43;125051;1093;64287;-78
2021/07/17 08:22:04;;;;;;;12.95;11.73;;;;;;;30.43;58.57;98809.21;125036;1093;64262;-78
2021/07/17 08:24:31;;;;;;;13.67;12.27;;;;;;;30.38;58.10;98807.16;125034;1093;64271;-78
2021/07/17 08:26:59;;;;;;;14.15;12.85;;;;;;;30.32;57.93;98813.61;125040;1093;64361;-78
2021/07/17 08:29:26;;;;;;;12.60;11.35;;;;;;;30.10;58.28;98815.20;124875;1093;64326;-76
2021/07/17 08:31:53;;;;;;;11.80;10.80;;;;;;;30.03;58.71;98808.96;124902;1093;64258;-77
2021/07/17 08:34:20;;;;;;;12.53;11.43;;;;;;;29.98;58.84;98804.98;125044;1093;64280;-76
2021/07/17 08:36:47;;;;;;;13.07;11.97;;;;;;;29.97;58.78;98813.48;125023;1093;64270;-76
2021/07/17 08:39:15;;;;;;;12.00;11.10;;;;;;;29.88;57.98;98806.62;124996;1093;64265;-78
2021/07/17 08:41:48;;;;;;;11.60;10.05;;;;;;;29.79;58.21;98813.52;125011;1093;64314;-80
2021/07/17 08:44:19;;;;;;;10.63;9.73;;;;;;;29.66;58.09;98812.62;125096;1092;64210;-79
2021/07/17 08:46:46;;;;;;;11.70;10.60;;;;;;;29.66;58.68;98806.29;124834;1093;64296;-78
2021/07/17 08:49:15;;;;;;;10.15;9.20;;;;;;;29.80;58.89;98806.95;124891;1093;64302;-76
2021/07/17 08:51:46;;;;;;;10.73;9.73;;;;;;;29.92;58.64;98796.85;125130;1093;64267;-77
2021/07/17 08:54:16;;;;;;;9.70;8.87;;;;;;;29.88;59.22;98798.38;125080;1093;64316;-76
2021/07/17 08:56:44;;;;;;;10.23;9.37;;;;;;;29.53;56.40;98799.85;125055;1093;64190;-78
2021/07/17 08:59:12;;;;;;;10.20;9.17;;;;;;;29.26;57.79;98809.48;125078;1092;64268;-76
2021/07/17 09:01:39;;;;;;;10.53;9.53;;;;;;;29.49;57.35;98798.66;125019;1092;64273;-76
2021/07/17 09:04:08;;;;;;;9.83;8.93;;;;;;;29.68;57.96;98802.24;124875;1093;64271;-77
2021/07/17 09:06:36;;;;;;;9.80;9.00;;;;;;;29.87;57.47;98803.04;125037;1092;64287;-77
2021/07/17 09:09:05;;;;;;;10.53;9.50;;;;;;;30.04;57.73;98799.63;125038;1093;64321;-77
2021/07/17 09:11:39;;;;;;;10.03;9.13;;;;;;;30.37;57.86;98793.67;125055;1093;64262;-77
2021/07/17 09:14:08;;;;;;;11.43;9.90;;;;;;;30.48;56.49;98792.02;125031;1093;64290;-76
2021/07/17 09:16:38;;;;;;;9.70;8.90;;;;;;;30.57;56.29;98793.32;125073;1093;64337;-77
2021/07/17 09:19:06;;;;;;;9.80;8.97;;;;;;;30.76;56.33;98794.08;125023;1093;64427;-77
2021/07/17 09:21:39;;;;;;;11.00;9.90;;;;;;;30.83;55.47;98786.55;124915;1093;64274;-77
2021/07/17 09:24:09;;;;;;;10.47;9.53;;;;;;;31.00;55.55;98789.44;125040;1093;64364;-80
2021/07/17 09:26:49;;;;;;;10.87;9.77;;;;;;;30.92;52.96;98787.88;125066;1093;64262;-76
2021/07/17 09:29:17;;;;;;;10.23;9.23;;;;;;;30.37;54.04;98790.92;125000;1093;64329;-76
2021/07/17 09:31:50;;;;;;;10.30;9.33;;;;;;;30.27;54.29;98787.91;125035;1093;64306;-77
2021/07/17 09:34:20;;;;;;;9.87;8.97;;;;;;;30.35;54.88;98784.81;125025;1093;64364;-76
2021/07/17 09:37:09;;;;;;;10.17;9.23;;;;;;;30.30;54.54;98795.67;125049;1092;64271;-76
2021/07/17 09:39:45;;;;;;;10.80;9.70;;;;;;;30.66;55.18;98786.41;124906;1093;64379;-77
2021/07/17 09:42:17;;;;;;;10.40;9.37;;;;;;;31.10;54.55;98786.92;124918;1093;64319;-77
2021/07/17 09:44:52;;;;;;;10.57;9.77;;;;;;;31.10;51.39;98788.81;124914;1093;64335;-76
2021/07/17 09:47:24;;;;;;;10.57;9.57;;;;;;;31.02;52.54;98782.61;124994;1092;64267;-77
2021/07/17 09:50:17;;;;;;;9.60;8.80;;;;;;;30.92;52.49;98787.05;125061;1093;64271;-77
2021/07/17 09:52:46;;;;;;;10.47;9.47;;;;;;;31.03;52.36;98780.70;125034;1093;64298;-77
2021/07/17 09:55:16;;;;;;;9.68;8.70;;;;;;;31.09;52.48;98785.23;125074;1093;64187;-77
2021/07/17 09:57:44;;;;;;;9.53;8.63;;;;;;;31.27;52.22;98789.75;125084;1093;64185;-75
2021/07/17 10:00:14;;;;;;;10.07;9.17;;;;;;;31.29;51.90;98787.60;125020;1093;64306;-76
2021/07/17 10:02:42;;;;;;;10.37;9.47;;;;;;;31.16;51.68;98779.61;125038;1093;64193;-76
2021/07/17 10:05:15;;;;;;;10.20;9.20;;;;;;;30.93;52.07;98781.29;124927;1092;64345;-76
2021/07/17 10:07:42;;;;;;;10.93;9.70;;;;;;;30.95;51.97;98770.05;124992;1092;64329;-76
2021/07/17 10:10:10;;;;;;;9.80;8.93;;;;;;;30.87;52.47;98779.51;125071;1092;64277;-77
2021/07/17 10:12:42;;;;;;;11.10;9.93;;;;;;;30.83;52.50;98775.55;125008;1093;64307;-77
2021/07/17 10:15:15;;;;;;;11.13;10.13;;;;;;;30.73;52.07;98769.77;125029;1093;64254;-76
2021/07/17 10:17:44;;;;;;;10.57;9.57;;;;;;;30.54;52.08;98771.80;125063;1093;64268;-76
2021/07/17 10:20:14;;;;;;;11.37;10.07;;;;;;;30.64;52.02;98769.30;124927;1093;64281;-76
2021/07/17 10:22:43;;;;;;;10.97;9.87;;;;;;;30.80;51.97;98768.58;125040;1093;64309;-76
2021/07/17 10:25:13;;;;;;;11.88;10.68;;;;;;;31.13;51.10;98772.67;125115;1092;64268;-78
2021/07/17 10:27:41;;;;;;;11.47;10.47;;;;;;;31.21;51.25;98766.78;125073;1093;64271;-76
2021/07/17 10:30:11;;;;;;;12.67;9.87;;;;;;;31.36;50.95;98762.66;125076;1093;64281;-76
2021/07/17 10:32:38;;;;;;;11.40;10.40;;;;;;;31.27;50.77;98762.22;125042;1092;64264;-77
2021/07/17 10:35:06;;;;;;;10.63;9.57;;;;;;;31.17;50.96;98750.98;125021;1093;64265;-77
2021/07/17 10:37:36;;;;;;;11.47;10.50;;;;;;;30.92;50.83;98756.78;124997;1091;64291;-76
2021/07/17 10:40:13;;;;;;;11.87;10.53;;;;;;;30.69;51.03;98768.59;125097;1093;64284;-76
2021/07/17 10:42:47;;;;;;;10.83;9.83;;;;;;;30.69;52.11;98763.09;125099;1093;64294;-76
2021/07/17 10:45:38;;;;;;;12.00;10.55;;;;;;;30.74;52.22;98761.29;125019;1093;64191;-76
2021/07/17 10:48:24;;;;;;;11.50;10.50;;;;;;;30.86;51.72;98758.58;125014;1093;64268;-77
2021/07/17 10:50:52;;;;;;;12.03;10.83;;;;;;;30.90;51.87;98753.42;125042;1093;64281;-77
2021/07/17 10:53:48;;;;;;;12.30;11.03;;;;;;;30.97;51.89;98746.72;125092;1093;64310;-77
2021/07/17 10:56:27;;;;;;;12.07;10.73;;;;;;;31.21;51.65;98744.76;124985;1093;64194;-76
2021/07/17 10:58:59;;;;;;;11.87;10.77;;;;;;;31.30;51.25;98738.87;125013;1093;64202;-77
2021/07/17 11:01:47;;;;;;;12.50;10.97;;;;;;;31.30;50.33;98744.38;125155;1093;64438;-75
2021/07/17 11:04:31;;;;;;;11.10;10.20;;;;;;;31.18;51.14;98736.16;125042;1093;64319;-77
2021/07/17 11:07:17;;;;;;;12.70;11.40;;;;;;;31.39;51.30;98740.20;125033;1093;64247;-77
2021/07/17 11:10:03;;;;;;;11.67;10.63;;;;;;;31.54;50.72;98734.98;125040;1093;64287;-75
2021/07/17 11:12:47;;;;;;;13.20;11.90;;;;;;;31.70;50.13;98725.09;125050;1093;64213;-75
2021/07/17 11:15:18;;;;;;;13.30;12.00;;;;;;;31.94;49.19;98723.11;125156;1092;64291;-76
2021/07/17 11:17:53;;;;;;;13.37;12.03;;;;;;;32.09;48.18;98728.86;125066;1093;64195;-76
2021/07/17 11:20:27;;;;;;;12.95;11.85;;;;;;;32.24;48.74;98720.03;125084;1093;64268;-76